Time;durP1;ratioP1;P1;durP2;ratioP2;P2;SDS_P1;SDS_P2;PMS_P1;PMS_P2;Temp;Humidity;BMP_temperature;BMP_pressure;BME280_temperature;BME280_humidity;BME280_pressure;Samples;Min_cycle;Max_cycle;Signal;HPM_P1;HPM_P2
2024/04/18 00:01:51;;;;;;;1.30;1.20;;;22.90;46.40;;;;;;11212564;26;20007;-45
2024/04/18 00:06:54;;;;;;;1.60;1.23;;;22.90;46.20;;;;;;11212629;26;20018;-45
2024/04/18 00:11:57;;;;;;;1.13;1.02;;;22.90;46.20;;;;;;11212360;26;20011;-45
2024/04/18 00:17:03;;;;;;;1.52;1.10;;;22.90;50.80;;;;;;11211992;26;20775;-45
2024/04/18 00:22:06;;;;;;;1.27;1.17;;;22.80;46.20;;;;;;11212016;26;20518;-45
2024/04/18 00:27:10;;;;;;;1.23;1.13;;;22.70;46.30;;;;;;11211697;26;20011;-46
2024/04/18 00:32:16;;;;;;;1.35;1.20;;;22.50;46.50;;;;;;11207851;26;20011;-45
2024/04/18 00:37:19;;;;;;;1.60;1.10;;;22.50;46.60;;;;;;11137907;26;20011;-45
2024/04/18 00:42:23;;;;;;;1.42;1.20;;;22.60;46.50;;;;;;11138049;26;20004;-45
2024/04/18 00:47:28;;;;;;;1.15;1.02;;;22.50;46.70;;;;;;11137521;26;20458;-45
2024/04/18 00:52:32;;;;;;;1.50;1.10;;;22.30;46.80;;;;;;11136002;26;20015;-45
2024/04/18 00:57:35;;;;;;;1.10;1.00;;;22.40;46.70;;;;;;11137231;26;20011;-45
2024/04/18 01:02:41;;;;;;;1.35;1.02;;;22.10;46.20;;;;;;11137421;26;20015;-45
2024/04/18 01:07:44;;;;;;;1.63;1.30;;;22.40;46.70;;;;;;11137653;26;20043;-45
2024/04/18 01:12:57;;;;;;;0.95;0.88;;;22.20;46.90;;;;;;11137270;26;20427;-45
2024/04/18 01:18:05;;;;;;;1.20;1.10;;;22.40;46.20;;;;;;11136788;26;20015;-45
2024/04/18 01:23:08;;;;;;;0.80;0.80;;;22.20;46.70;;;;;;11137130;26;20335;-45
2024/04/18 01:28:14;;;;;;;1.30;1.00;;;22.20;46.70;;;;;;11136659;26;20019;-46
2024/04/18 01:33:17;;;;;;;1.20;1.02;;;22.00;46.90;;;;;;11136510;26;20350;-46
2024/04/18 01:38:20;;;;;;;2.15;1.02;;;22.10;46.60;;;;;;11136419;26;20001;-45
2024/04/18 01:43:26;;;;;;;1.02;0.88;;;22.30;46.30;;;;;;11136383;26;20346;-45
2024/04/18 01:48:29;;;;;;;1.25;0.90;;;22.10;46.40;;;;;;11136062;26;20076;-45
2024/04/18 01:53:33;;;;;;;1.00;0.90;;;22.10;46.60;;;;;;11135938;26;20010;-45
2024/04/18 01:58:39;;;;;;;1.10;1.00;;;22.30;45.80;;;;;;11135789;26;20008;-45
2024/04/18 02:03:42;;;;;;;1.10;1.00;;;22.10;46.30;;;;;;11134564;26;20004;-45
2024/04/18 02:08:45;;;;;;;1.23;0.80;;;22.00;46.60;;;;;;11135753;26;20066;-45
2024/04/18 02:13:51;;;;;;;1.30;0.90;;;21.90;46.60;;;;;;11135305;26;20012;-46
2024/04/18 02:18:54;;;;;;;1.17;0.90;;;22.00;46.50;;;;;;11134489;26;20400;-46
2024/04/18 02:23:57;;;;;;;1.58;0.95;;;21.70;47.20;;;;;;11135021;26;20024;-47
2024/04/18 02:29:03;;;;;;;1.58;0.70;;;21.60;47.30;;;;;;11134768;26;20004;-45
2024/04/18 02:34:06;;;;;;;0.75;0.70;;;21.80;46.70;;;;;;11135179;26;20018;-45
2024/04/18 02:39:10;;;;;;;1.02;0.70;;;21.60;47.10;;;;;;11134669;26;20077;-45
2024/04/18 02:44:16;;;;;;;0.70;0.70;;;22.10;45.90;;;;;;11134577;26;20016;-45
2024/04/18 02:49:19;;;;;;;1.23;0.80;;;21.90;46.00;;;;;;11133639;26;20000;-45
2024/04/18 02:54:23;;;;;;;1.20;0.80;;;21.60;46.80;;;;;;11132625;26;20020;-48
2024/04/18 02:59:29;;;;;;;0.75;0.75;;;21.50;47.80;;;;;;11133699;26;20010;-45
2024/04/18 03:04:32;;;;;;;0.82;0.77;;;21.70;47.90;;;;;;11133735;26;20001;-44
2024/04/18 03:09:35;;;;;;;0.70;0.60;;;21.80;46.90;;;;;;11133979;26;20335;-46
2024/04/18 03:14:41;;;;;;;1.13;0.70;;;22.40;46.40;;;;;;11135816;26;20030;-45
2024/04/18 03:19:44;;;;;;;0.95;0.70;;;22.70;45.00;;;;;;11140906;26;20012;-46
2024/04/18 03:24:48;;;;;;;0.65;0.65;;;22.60;45.40;;;;;;11140696;26;20011;-45
2024/04/18 03:29:54;;;;;;;0.60;0.60;;;22.70;51.50;;;;;;11140382;26;20454;-46
2024/04/18 03:34:57;;;;;;;0.70;0.70;;;22.80;45.00;;;;;;11140158;26;20015;-46
2024/04/18 03:40:00;;;;;;;2.15;0.82;;;22.50;45.30;;;;;;11139899;26;20015;-45
2024/04/18 03:45:07;;;;;;;0.57;0.57;;;22.30;46.40;;;;;;11140262;26;20008;-45
2024/04/18 03:50:10;;;;;;;0.70;0.60;;;22.50;45.70;;;;;;11139690;26;20004;-45
2024/04/18 03:55:13;;;;;;;0.82;0.60;;;22.90;45.00;;;;;;11139777;26;20364;-46
2024/04/18 04:00:19;;;;;;;0.98;0.70;;;22.80;45.20;;;;;;11139428;26;20012;-46
2024/04/18 04:05:23;;;;;;;0.70;0.70;;;22.40;45.90;;;;;;11139092;26;19996;-47
2024/04/18 04:10:26;;;;;;;0.60;0.60;;;22.20;46.30;;;;;;11136597;26;20000;-46
2024/04/18 04:15:32;;;;;;;0.60;0.60;;;22.10;46.40;;;;;;11138588;26;20458;-47
2024/04/18 04:20:35;;;;;;;0.70;0.70;;;22.00;46.70;;;;;;11137971;26;20012;-45
2024/04/18 04:25:38;;;;;;;0.57;0.57;;;22.20;46.30;;;;;;11135978;26;20004;-46
2024/04/18 04:30:44;;;;;;;0.75;0.63;;;22.20;46.30;;;;;;11138175;26;20012;-45
2024/04/18 04:35:47;;;;;;;0.52;0.52;;;22.20;46.70;;;;;;11138175;26;20015;-45
2024/04/18 04:40:51;;;;;;;2.15;0.60;;;21.90;47.40;;;;;;11138204;26;20420;-46
2024/04/18 04:45:58;;;;;;;1.02;0.60;;;22.20;46.70;;;;;;11138481;26;20011;-46
2024/04/18 04:51:03;;;;;;;0.60;0.60;;;22.20;46.80;;;;;;11137857;26;20000;-45
2024/04/18 04:56:07;;;;;;;8.27;2.15;;;22.20;46.80;;;;;;11137500;26;20158;-45
2024/04/18 05:01:13;;;;;;;16.98;4.97;;;22.50;46.70;;;;;;11137458;26;20000;-45
2024/04/18 05:06:16;;;;;;;15.85;4.07;;;22.80;46.40;;;;;;11137572;26;20011;-45
2024/04/18 05:11:19;;;;;;;13.65;3.70;;;23.20;45.90;;;;;;11136877;26;20016;-46
2024/04/18 05:16:25;;;;;;;18.10;3.72;;;23.20;48.20;;;;;;11136799;26;20008;-45
2024/04/18 05:21:28;;;;;;;15.43;3.70;;;23.20;49.70;;;;;;11137518;26;20342;-46
2024/04/18 05:26:32;;;;;;;19.13;3.42;;;22.90;49.30;;;;;;11136825;26;20004;-45
2024/04/18 05:31:38;;;;;;;15.30;3.08;;;22.30;48.60;;;;;;11135766;26;20004;-46
2024/04/18 05:36:41;;;;;;;14.32;2.70;;;22.10;48.60;;;;;;11135377;26;20000;-45
2024/04/18 05:41:47;;;;;;;17.73;2.92;;;22.20;48.40;;;;;;11136426;26;20013;-46
2024/04/18 05:46:53;;;;;;;13.82;2.95;;;22.20;48.60;;;;;;11136140;26;20351;-44
2024/04/18 05:51:56;;;;;;;11.50;3.55;;;22.20;48.30;;;;;;11136541;26;20015;-45
2024/04/18 05:56:59;;;;;;;12.43;2.95;;;22.10;47.50;;;;;;11135192;26;20389;-45
2024/04/18 06:02:05;;;;;;;6.88;2.70;;;22.00;47.40;;;;;;11130379;26;19997;-45
2024/04/18 06:07:09;;;;;;;6.82;2.40;;;21.80;47.70;;;;;;11128825;26;20007;-46
2024/04/18 06:12:17;;;;;;;9.30;3.30;;;21.90;47.50;;;;;;11127389;26;19997;-47
2024/04/18 06:17:23;;;;;;;10.25;2.58;;;22.00;49.60;;;;;;11131967;26;20000;-45
2024/04/18 06:22:26;;;;;;;5.35;3.25;;;22.00;47.10;;;;;;11135432;26;20379;-45
2024/04/18 06:27:29;;;;;;;7.03;2.90;;;22.10;46.60;;;;;;11134654;26;20343;-44
2024/04/18 06:32:35;;;;;;;8.52;3.10;;;22.10;46.00;;;;;;11134255;26;20000;-45
2024/04/18 06:37:38;;;;;;;6.20;3.13;;;21.90;46.40;;;;;;11164739;26;20014;-45
2024/04/18 06:42:41;;;;;;;7.03;2.72;;;22.00;45.50;;;;;;11133704;26;20620;-45
2024/04/18 06:47:49;;;;;;;4.95;3.03;;;22.00;43.40;;;;;;11134365;26;20008;-45
2024/04/18 06:52:53;;;;;;;6.35;3.17;;;21.90;43.80;;;;;;11140830;26;20007;-45
2024/04/18 06:57:56;;;;;;;3.95;2.70;;;22.10;43.90;;;;;;11140390;26;20000;-44
2024/04/18 07:03:02;;;;;;;3.22;1.88;;;22.00;44.00;;;;;;11140211;26;20019;-45
2024/04/18 07:08:05;;;;;;;6.95;2.22;;;21.90;43.60;;;;;;11145381;26;20023;-45
2024/04/18 07:13:09;;;;;;;3.47;1.88;;;22.00;43.70;;;;;;11213838;26;20356;-47
2024/04/18 07:18:14;;;;;;;5.32;2.20;;;22.00;43.90;;;;;;11214025;26;20007;-45
2024/04/18 07:23:18;;;;;;;2.95;2.00;;;22.20;41.90;;;;;;11212311;26;19996;-44
2024/04/18 07:28:21;;;;;;;4.30;1.70;;;22.00;42.10;;;;;;11213258;26;20453;-44
2024/04/18 07:33:27;;;;;;;4.75;1.50;;;21.70;42.90;;;;;;11212243;26;20000;-44
2024/04/18 07:38:30;;;;;;;3.78;1.40;;;21.70;43.50;;;;;;11214026;26;20348;-47
2024/04/18 07:43:34;;;;;;;2.75;1.77;;;21.60;43.90;;;;;;11167509;26;20013;-46
2024/04/18 07:48:39;;;;;;;3.25;1.40;;;21.60;43.90;;;;;;11249178;26;20467;-44
2024/04/18 07:53:43;;;;;;;3.35;1.50;;;21.70;44.00;;;;;;11285505;26;20011;-44
2024/04/18 07:58:46;;;;;;;3.45;1.00;;;21.60;44.40;;;;;;11286575;26;20355;-45
2024/04/18 08:03:55;;;;;;;2.83;1.05;;;21.60;44.50;;;;;;11263976;26;20444;-45
2024/04/18 08:08:58;;;;;;;3.42;1.13;;;21.50;45.00;;;;;;11246904;26;20766;-45
2024/04/18 08:14:01;;;;;;;3.00;1.20;;;21.60;45.10;;;;;;11212073;26;20008;-45
2024/04/18 08:19:07;;;;;;;3.80;1.20;;;21.60;45.10;;;;;;11220356;26;20018;-45
2024/04/18 08:24:18;;;;;;;3.92;1.23;;;21.60;45.00;;;;;;11286039;26;20075;-45
2024/04/18 08:29:22;;;;;;;3.67;1.20;;;21.60;45.10;;;;;;11260420;26;20007;-44
2024/04/18 08:34:28;;;;;;;2.45;1.10;;;21.40;46.10;;;;;;11286236;26;20013;-47
2024/04/18 08:39:31;;;;;;;4.15;1.30;;;21.60;45.50;;;;;;11224179;26;20022;-47
2024/04/18 08:44:35;;;;;;;3.08;0.98;;;21.60;45.50;;;;;;11241322;26;20010;-44
2024/04/18 08:49:41;;;;;;;3.42;1.10;;;21.50;45.80;;;;;;11285264;26;19999;-46
2024/04/18 08:54:44;;;;;;;1.88;1.00;;;21.50;45.80;;;;;;11227909;26;20387;-45
2024/04/18 08:59:48;;;;;;;3.70;1.10;;;21.40;46.10;;;;;;11229814;26;20014;-44
2024/04/18 09:04:54;;;;;;;3.42;1.05;;;21.50;45.90;;;;;;11285010;26;20003;-45
2024/04/18 09:10:07;;;;;;;3.70;1.17;;;21.40;46.00;;;;;;11271576;26;20011;-44
2024/04/18 09:15:11;;;;;;;1.20;0.82;;;21.40;46.30;;;;;;11196730;26;20010;-46
2024/04/18 09:20:16;;;;;;;2.33;0.90;;;21.40;46.30;;;;;;11211774;26;20583;-46
2024/04/18 09:25:20;;;;;;;2.78;1.10;;;21.40;46.60;;;;;;11209599;26;19995;-44
2024/04/18 09:30:23;;;;;;;1.77;0.85;;;21.40;46.90;;;;;;11209575;26;20080;-49
2024/04/18 09:35:29;;;;;;;3.35;0.90;;;21.30;47.30;;;;;;11209067;26;20568;-48
2024/04/18 09:40:32;;;;;;;3.03;0.90;;;21.60;46.50;;;;;;11239259;26;20456;-48
2024/04/18 09:45:38;;;;;;;2.97;1.10;;;21.60;46.50;;;;;;11247282;26;20452;-44
2024/04/18 09:50:44;;;;;;;3.83;1.25;;;21.90;46.00;;;;;;11208482;26;20468;-48
2024/04/18 09:55:47;;;;;;;3.83;1.13;;;22.00;45.70;;;;;;11216603;26;20013;-47
2024/04/18 10:00:50;;;;;;;1.73;0.88;;;21.80;46.50;;;;;;11282782;26;20009;-50
2024/04/18 10:05:58;;;;;;;2.88;1.15;;;21.50;47.50;;;;;;11282753;26;20042;-44
2024/04/18 10:11:01;;;;;;;3.50;0.80;;;21.20;48.20;;;;;;11282543;26;19998;-46
2024/04/18 10:16:06;;;;;;;1.70;0.77;;;21.50;47.70;;;;;;11259622;26;20007;-47
2024/04/18 10:21:14;;;;;;;1.52;0.90;;;21.60;47.80;;;;;;11213939;26;20344;-44
2024/04/18 10:26:18;;;;;;;3.00;0.90;;;21.80;47.40;;;;;;11281882;26;20337;-46
2024/04/18 10:31:21;;;;;;;4.55;1.20;;;21.80;47.50;;;;;;11271181;26;20018;-47
2024/04/18 10:36:27;;;;;;;3.78;1.30;;;21.90;47.50;;;;;;11208132;26;20330;-47
2024/04/18 10:41:30;;;;;;;5.13;1.40;;;21.60;48.10;;;;;;11266409;26;20042;-45
2024/04/18 10:46:33;;;;;;;5.13;1.50;;;21.50;48.50;;;;;;11207537;26;20407;-45
2024/04/18 10:51:39;;;;;;;4.82;1.30;;;21.50;48.70;;;;;;11220986;26;20085;-46
2024/04/18 10:56:43;;;;;;;5.03;1.20;;;21.70;48.80;;;;;;11207610;26;20073;-45
2024/04/18 11:01:46;;;;;;;4.78;1.48;;;21.90;48.20;;;;;;11207137;26;19996;-46
2024/04/18 11:06:52;;;;;;;4.30;1.20;;;21.90;48.00;;;;;;11206808;26;19999;-46
2024/04/18 11:11:56;;;;;;;7.72;1.30;;;22.00;47.80;;;;;;11206125;26;19999;-48
2024/04/18 11:17:00;;;;;;;4.20;1.10;;;22.20;47.40;;;;;;11205004;26;19999;-46
2024/04/18 11:22:06;;;;;;;5.10;1.30;;;22.30;47.10;;;;;;11205543;26;20056;-47
2024/04/18 11:27:09;;;;;;;2.72;0.95;;;22.20;47.40;;;;;;11205730;26;20014;-47
2024/04/18 11:32:13;;;;;;;2.63;0.88;;;22.40;46.90;;;;;;11204770;26;20013;-47
2024/04/18 11:37:18;;;;;;;4.45;1.00;;;22.50;46.60;;;;;;11210515;26;20018;-49
2024/04/18 11:42:22;;;;;;;1.88;0.77;;;22.50;46.80;;;;;;11213084;26;20014;-44
2024/04/18 11:47:25;;;;;;;4.03;1.10;;;22.80;46.50;;;;;;11212437;26;20007;-45
2024/04/18 11:52:31;;;;;;;3.72;0.90;;;22.90;46.20;;;;;;11212844;26;20464;-45
2024/04/18 11:57:34;;;;;;;2.97;0.80;;;23.10;45.40;;;;;;11213343;26;20014;-44
2024/04/18 12:02:38;;;;;;;4.72;1.10;;;23.20;44.80;;;;;;11212677;26;20011;-46
2024/04/18 12:07:44;;;;;;;3.08;1.15;;;22.30;40.00;;;;;;11212497;26;20014;-46
2024/04/18 12:12:47;;;;;;;5.35;1.33;;;22.30;40.00;;;;;;11212603;26;20042;-45
2024/04/18 12:17:50;;;;;;;5.25;1.13;;;22.00;42.20;;;;;;11211790;26;19996;-46
2024/04/18 12:22:56;;;;;;;3.72;0.90;;;22.00;44.20;;;;;;11212704;26;20015;-44
2024/04/18 12:27:59;;;;;;;1.80;0.90;;;22.00;44.70;;;;;;11210859;26;19996;-45
2024/04/18 12:33:02;;;;;;;2.25;0.90;;;22.00;45.60;;;;;;11211519;26;20011;-44
2024/04/18 12:38:08;;;;;;;2.55;0.70;;;22.00;45.50;;;;;;11211612;26;20007;-47
2024/04/18 12:43:12;;;;;;;4.40;0.85;;;21.90;45.90;;;;;;11211164;26;20000;-45
2024/04/18 12:48:15;;;;;;;3.67;0.75;;;21.70;46.50;;;;;;11210529;26;20149;-44
2024/04/18 12:53:22;;;;;;;3.38;0.60;;;22.10;46.20;;;;;;11210441;26;20360;-44
2024/04/18 12:58:25;;;;;;;2.88;0.70;;;22.80;45.20;;;;;;11175734;26;20016;-45
2024/04/18 13:03:29;;;;;;;1.60;0.60;;;23.20;44.40;;;;;;11137310;26;20419;-44
2024/04/18 13:08:34;;;;;;;1.58;0.57;;;23.20;44.20;;;;;;11137039;26;20015;-45
2024/04/18 13:13:38;;;;;;;2.50;1.00;;;23.00;44.30;;;;;;11136781;26;20358;-44
2024/04/18 13:18:42;;;;;;;1.83;0.70;;;22.80;44.60;;;;;;11136488;26;20000;-46
2024/04/18 13:23:48;;;;;;;4.22;0.90;;;22.90;44.40;;;;;;11137185;26;20482;-47
2024/04/18 13:28:51;;;;;;;2.90;0.80;;;22.90;42.30;;;;;;11136590;26;20015;-44
2024/04/18 13:33:55;;;;;;;2.83;0.80;;;23.00;41.40;;;;;;11136206;26;20015;-45
2024/04/18 13:39:01;;;;;;;1.83;0.73;;;22.90;40.70;;;;;;11135933;26;20016;-44
2024/04/18 13:44:04;;;;;;;2.95;0.88;;;23.10;40.90;;;;;;11193007;26;20007;-48
2024/04/18 13:49:07;;;;;;;7.43;1.10;;;23.30;41.20;;;;;;11209402;26;20004;-45
2024/04/18 13:54:13;;;;;;;8.70;1.00;;;23.30;44.30;;;;;;11209400;26;20007;-44
2024/04/18 13:59:16;;;;;;;3.67;0.80;;;23.30;42.40;;;;;;11208289;26;20072;-44
2024/04/18 14:04:20;;;;;;;8.88;1.00;;;23.40;41.90;;;;;;11209067;26;20465;-45
2024/04/18 14:09:33;;;;;;;6.28;0.90;;;23.60;41.10;;;;;;11209216;26;20007;-44
2024/04/18 14:14:37;;;;;;;8.23;1.00;;;23.70;41.40;;;;;;11208717;26;20441;-46
2024/04/18 14:19:40;;;;;;;10.73;1.25;;;23.90;41.20;;;;;;11208726;26;20011;-44
2024/04/18 14:24:46;;;;;;;5.70;1.20;;;23.70;42.20;;;;;;11207865;26;20007;-45
2024/04/18 14:29:50;;;;;;;3.75;0.90;;;23.80;42.00;;;;;;11208339;26;20081;-45
2024/04/18 14:34:53;;;;;;;4.15;0.93;;;23.90;41.70;;;;;;11207298;26;20441;-44
2024/04/18 14:39:59;;;;;;;3.60;1.10;;;24.10;41.40;;;;;;11207926;26;20011;-47
2024/04/18 14:45:02;;;;;;;7.50;0.90;;;24.20;41.10;;;;;;11208043;26;20014;-45
2024/04/18 14:50:06;;;;;;;6.53;1.33;;;24.20;41.40;;;;;;11206776;26;20010;-45
2024/04/18 14:55:12;;;;;;;11.27;0.98;;;24.20;41.30;;;;;;11207022;26;20007;-45
2024/04/18 15:00:15;;;;;;;6.43;1.10;;;24.30;40.70;;;;;;11207091;26;20426;-45
2024/04/18 15:05:19;;;;;;;4.82;0.98;;;24.20;41.10;;;;;;11206712;26;20014;-44
2024/04/18 15:10:26;;;;;;;2.65;0.90;;;24.40;40.90;;;;;;11172943;26;20009;-45
2024/04/18 15:15:29;;;;;;;14.68;0.95;;;24.50;40.90;;;;;;11140463;26;20001;-46
2024/04/18 15:20:32;;;;;;;3.97;1.00;;;24.40;41.90;;;;;;11140812;26;20000;-46
2024/04/18 15:25:38;;;;;;;3.17;0.90;;;24.30;41.30;;;;;;11140765;26;20004;-45
2024/04/18 15:30:41;;;;;;;2.03;0.80;;;24.20;41.50;;;;;;11139531;26;20001;-44
2024/04/18 15:35:45;;;;;;;3.85;1.20;;;24.20;41.50;;;;;;11140103;26;19997;-45
2024/04/18 15:40:51;;;;;;;2.65;0.80;;;24.10;41.80;;;;;;11139470;26;20010;-45
2024/04/18 15:45:54;;;;;;;2.63;0.90;;;24.20;41.80;;;;;;11139736;26;20437;-44
2024/04/18 15:50:57;;;;;;;1.92;0.70;;;24.20;41.50;;;;;;11138575;26;20012;-45
2024/04/18 15:56:03;;;;;;;2.70;1.20;;;24.10;42.00;;;;;;11139099;26;20327;-45
2024/04/18 16:01:06;;;;;;;3.78;1.00;;;24.10;41.90;;;;;;11139421;26;20008;-48
2024/04/18 16:06:10;;;;;;;3.28;1.08;;;24.00;42.10;;;;;;11139116;26;20397;-44
2024/04/18 16:11:16;;;;;;;1.67;0.70;;;24.00;41.80;;;;;;11139675;26;20073;-45
2024/04/18 16:16:19;;;;;;;2.33;0.70;;;24.10;41.90;;;;;;11138830;26;20091;-44
2024/04/18 16:21:22;;;;;;;5.15;0.85;;;24.20;41.80;;;;;;11138226;26;20077;-45
2024/04/18 16:26:28;;;;;;;1.85;0.77;;;24.30;41.60;;;;;;11138294;26;20014;-44
2024/04/18 16:31:33;;;;;;;8.55;1.30;;;24.10;41.80;;;;;;11138184;26;20000;-45
2024/04/18 16:36:37;;;;;;;10.63;0.82;;;24.20;41.50;;;;;;11159238;26;20000;-45
2024/04/18 16:41:43;;;;;;;4.50;0.93;;;24.50;41.10;;;;;;11137652;26;20004;-45
2024/04/18 16:46:46;;;;;;;4.85;1.00;;;24.50;41.50;;;;;;11138680;26;20465;-44
2024/04/18 16:51:51;;;;;;;5.97;1.00;;;24.70;41.70;;;;;;11137792;26;20008;-47
2024/04/18 16:56:56;;;;;;;7.43;1.17;;;24.80;41.80;;;;;;11137880;26;20379;-45
2024/04/18 17:02:00;;;;;;;11.50;1.60;;;24.70;42.30;;;;;;11137120;26;20074;-45
2024/04/18 17:07:03;;;;;;;3.72;1.15;;;24.80;42.90;;;;;;11187168;26;20014;-46
2024/04/18 17:12:10;;;;;;;4.85;1.70;;;24.90;44.20;;;;;;11209854;26;20008;-45
2024/04/18 17:17:13;;;;;;;91.70;55.83;;;;;;;;;;11210100;26;20350;-46
2024/04/18 17:22:18;;;;;;;342.20;234.38;;;24.80;46.20;;;;;;11210736;26;20014;-48
2024/04/18 17:27:24;;;;;;;641.90;503.85;;;25.00;46.30;;;;;;11210329;26;19999;-45
2024/04/18 17:32:28;;;;;;;728.38;594.35;;;24.70;46.70;;;;;;11208334;26;20011;-47
2024/04/18 17:37:32;;;;;;;622.45;508.45;;;24.70;47.50;;;;;;11210387;26;20073;-45
2024/04/18 17:42:37;;;;;;;309.23;228.15;;;24.80;46.30;;;;;;11209480;26;20012;-47
2024/04/18 17:47:43;;;;;;;180.32;123.13;;;24.50;41.70;;;;;;11209402;26;20007;-45
2024/04/18 17:52:46;;;;;;;73.57;50.78;;;24.10;39.50;;;;;;11207946;26;20476;-46
2024/04/18 17:57:52;;;;;;;55.15;37.10;;;24.10;37.80;;;;;;11209691;26;20008;-47
2024/04/18 18:02:55;;;;;;;43.55;30.08;;;24.30;37.90;;;;;;11205546;26;19999;-47
2024/04/18 18:07:59;;;;;;;42.75;26.45;;;24.50;38.10;;;;;;11258676;26;20013;-48
2024/04/18 18:13:05;;;;;;;32.10;23.63;;;24.30;39.10;;;;;;11246872;26;20075;-46
2024/04/18 18:18:09;;;;;;;33.60;17.55;;;24.50;39.20;;;;;;11208627;26;20077;-47
2024/04/18 18:23:12;;;;;;;26.67;15.13;;;24.50;39.10;;;;;;11218516;26;19999;-44
2024/04/18 18:28:18;;;;;;;22.60;12.45;;;24.30;39.20;;;;;;11207869;26;19999;-46
2024/04/18 18:33:21;;;;;;;19.42;10.80;;;24.10;39.60;;;;;;11134490;26;20016;-45
2024/04/18 18:38:25;;;;;;;17.30;10.55;;;24.20;39.60;;;;;;11207994;26;19999;-45
2024/04/18 18:43:30;;;;;;;14.13;7.78;;;24.70;38.00;;;;;;11207793;26;20109;-44
2024/04/18 18:48:34;;;;;;;17.92;7.82;;;24.70;37.20;;;;;;11245605;26;20014;-45
2024/04/18 18:53:37;;;;;;;15.77;6.13;;;24.60;37.80;;;;;;11211635;26;20415;-45
2024/04/18 18:58:43;;;;;;;11.35;4.47;;;24.30;37.30;;;;;;11213828;26;20019;-45
2024/04/18 19:03:46;;;;;;;12.18;4.47;;;23.90;37.00;;;;;;11213759;26;20014;-45
2024/04/18 19:08:49;;;;;;;6.88;3.67;;;23.80;37.30;;;;;;11213767;26;20007;-45
2024/04/18 19:13:55;;;;;;;6.25;3.08;;;;;;;;;;11213552;26;20012;-45
2024/04/18 19:18:59;;;;;;;7.57;3.30;;;23.60;36.20;;;;;;11213805;26;20019;-45
2024/04/18 19:24:05;;;;;;;8.38;3.45;;;23.50;37.20;;;;;;11213008;26;20102;-47
2024/04/18 19:29:11;;;;;;;9.00;3.05;;;23.30;37.40;;;;;;11213185;26;20015;-45
2024/04/18 19:34:15;;;;;;;6.80;3.15;;;23.10;38.50;;;;;;11211967;26;20073;-48
2024/04/18 19:39:18;;;;;;;6.57;3.40;;;23.00;39.10;;;;;;11269320;26;20347;-45
2024/04/18 19:44:24;;;;;;;22.98;3.45;;;22.90;39.40;;;;;;11213538;26;20021;-45
2024/04/18 19:49:28;;;;;;;12.10;3.10;;;22.90;39.90;;;;;;11212021;26;20004;-47
2024/04/18 19:54:31;;;;;;;9.38;3.50;;;22.90;40.00;;;;;;11212467;26;20010;-45
2024/04/18 19:59:37;;;;;;;8.25;3.30;;;22.50;40.90;;;;;;11211827;26;20073;-45
2024/04/18 20:04:41;;;;;;;7.32;2.95;;;22.30;41.80;;;;;;11212388;26;20014;-46
2024/04/18 20:09:44;;;;;;;6.68;3.17;;;22.50;41.60;;;;;;11211949;26;20542;-45
2024/04/18 20:14:50;;;;;;;5.78;3.03;;;22.50;42.30;;;;;;11212040;26;20007;-44
2024/04/18 20:19:53;;;;;;;6.00;3.42;;;22.50;42.40;;;;;;11212163;26;20003;-45
2024/04/18 20:24:56;;;;;;;6.35;3.53;;;22.50;42.50;;;;;;11212042;26;20010;-46
2024/04/18 20:30:02;;;;;;;6.13;3.40;;;22.70;42.20;;;;;;11211062;26;20464;-48
2024/04/18 20:35:06;;;;;;;5.18;3.03;;;22.80;42.00;;;;;;11212214;26;19999;-45
2024/04/18 20:40:10;;;;;;;5.40;3.60;;;22.90;41.80;;;;;;11211002;26;20010;-45
2024/04/18 20:45:16;;;;;;;5.88;3.25;;;22.80;42.00;;;;;;11211466;26;20345;-45
2024/04/18 20:50:19;;;;;;;5.97;3.50;;;22.90;41.90;;;;;;11210575;26;20010;-45
2024/04/18 20:55:24;;;;;;;5.43;2.97;;;22.70;42.40;;;;;;11211396;26;20384;-45
2024/04/18 21:00:30;;;;;;;5.85;3.22;;;22.70;42.50;;;;;;11210791;26;19996;-45
2024/04/18 21:05:34;;;;;;;4.35;2.80;;;22.80;42.10;;;;;;11210971;26;20000;-48
2024/04/18 21:10:37;;;;;;;5.93;3.20;;;22.90;42.10;;;;;;11211969;26;19999;-45
2024/04/18 21:15:43;;;;;;;5.95;3.08;;;22.80;42.30;;;;;;11285058;26;20079;-45
2024/04/18 21:20:46;;;;;;;5.90;3.05;;;22.70;42.50;;;;;;11247111;26;19999;-45
2024/04/18 21:25:49;;;;;;;5.85;3.05;;;22.70;42.50;;;;;;11210988;26;20360;-45
2024/04/18 21:30:55;;;;;;;5.32;3.00;;;22.70;42.60;;;;;;11209361;26;20007;-46
2024/04/18 21:35:58;;;;;;;6.20;2.90;;;22.70;42.50;;;;;;11210223;26;20053;-46
2024/04/18 21:41:02;;;;;;;5.32;3.05;;;23.00;41.90;;;;;;11208500;26;20007;-47
2024/04/18 21:46:08;;;;;;;5.07;2.90;;;22.90;42.10;;;;;;11209736;26;20013;-45
2024/04/18 21:51:11;;;;;;;6.22;2.90;;;22.80;42.10;;;;;;11208503;26;20012;-45
2024/04/18 21:56:14;;;;;;;4.47;2.85;;;23.10;41.50;;;;;;11209515;26;20568;-45
2024/04/18 22:01:20;;;;;;;4.75;2.58;;;23.00;41.70;;;;;;11208949;26;19995;-45
2024/04/18 22:06:23;;;;;;;4.93;2.83;;;22.70;42.40;;;;;;11209173;26;20360;-45
2024/04/18 22:11:26;;;;;;;4.82;3.10;;;22.50;42.80;;;;;;11208446;26;20003;-45
2024/04/18 22:16:32;;;;;;;3.72;2.60;;;22.60;42.80;;;;;;11208609;26;20410;-48
2024/04/18 22:21:36;;;;;;;4.28;2.90;;;22.60;42.70;;;;;;11206843;26;19999;-46
2024/04/18 22:26:39;;;;;;;3.85;2.65;;;22.80;42.30;;;;;;11208596;26;20008;-46
2024/04/18 22:31:45;;;;;;;3.60;2.70;;;23.00;42.10;;;;;;11207414;26;20000;-47
2024/04/18 22:36:48;;;;;;;4.95;2.50;;;23.20;41.40;;;;;;11208281;26;20141;-45
2024/04/18 22:41:52;;;;;;;3.53;2.40;;;;;;;;;;11206511;26;20014;-45
2024/04/18 22:47:00;;;;;;;4.68;2.42;;;22.70;41.90;;;;;;11204091;26;20007;-47
2024/04/18 22:52:03;;;;;;;3.78;2.50;;;22.50;42.50;;;;;;11207478;26;20076;-47
2024/04/18 22:57:07;;;;;;;4.35;2.35;;;22.80;42.10;;;;;;11207855;26;20012;-46
2024/04/18 23:02:12;;;;;;;3.28;2.13;;;22.30;43.50;;;;;;11206947;26;20471;-45
2024/04/18 23:07:16;;;;;;;3.85;2.10;;;22.40;43.40;;;;;;11207344;26;20018;-45
2024/04/18 23:12:19;;;;;;;3.70;2.28;;;22.20;43.30;;;;;;11206499;26;19995;-45
2024/04/18 23:17:25;;;;;;;4.72;2.33;;;22.00;43.80;;;;;;11206875;26;20003;-49
2024/04/18 23:22:28;;;;;;;3.15;2.10;;;22.00;43.60;;;;;;11206060;26;19999;-45
2024/04/18 23:27:33;;;;;;;2.72;1.83;;;22.20;42.60;;;;;;11206421;26;20018;-45
2024/04/18 23:32:39;;;;;;;3.40;2.10;;;22.20;43.10;;;;;;11209144;26;20016;-44
2024/04/18 23:37:46;;;;;;;3.60;2.35;;;22.20;42.90;;;;;;11213765;26;20458;-45
2024/04/18 23:42:49;;;;;;;2.85;1.83;;;22.30;42.80;;;;;;11213131;26;19996;-45
2024/04/18 23:47:55;;;;;;;3.28;1.90;;;22.40;42.40;;;;;;11213458;26;20008;-47
2024/04/18 23:52:58;;;;;;;3.03;2.03;;;22.40;42.30;;;;;;11212311;26;20003;-45
2024/04/18 23:58:01;;;;;;;3.53;2.05;;;22.30;42.30;;;;;;11213006;26;20007;-45
